createdAt,value
2022-08-15T00:00:44.566Z,60.16
2022-08-15T00:01:44.612Z,60.33
2022-08-15T00:02:49.436Z,59.36
2022-08-15T00:04:01.038Z,59.36
2022-08-15T00:04:44.351Z,59.66
2022-08-15T00:05:44.338Z,59.66
2022-08-15T00:06:49.270Z,60.16
2022-08-15T00:07:48.552Z,59.86
2022-08-15T00:08:50.084Z,59.96
2022-08-15T00:09:55.036Z,59.56
2022-08-15T00:11:00.990Z,59.86
2022-08-15T00:11:44.279Z,60.26
2022-08-15T00:12:43.265Z,60.16
2022-08-15T00:13:43.249Z,60.36
2022-08-15T00:14:43.247Z,59.86
2022-08-15T00:15:43.595Z,60.16
2022-08-15T00:16:43.234Z,60.16
2022-08-15T00:17:47.978Z,60.26
2022-08-15T00:18:44.193Z,60.49
2022-08-15T00:19:43.188Z,60.39
2022-08-15T00:20:50.229Z,60.49
2022-08-15T00:21:44.171Z,60.56
2022-08-15T00:22:43.148Z,60.59
2022-08-15T00:23:43.142Z,60.39
2022-08-15T00:24:43.125Z,60.69
2022-08-15T00:25:43.118Z,60.59
2022-08-15T00:26:55.369Z,60.69
2022-08-15T00:27:44.101Z,60.99
2022-08-15T00:28:44.084Z,60.89
2022-08-15T00:29:43.077Z,60.49
2022-08-15T00:30:57.596Z,60.89
2022-08-15T00:31:44.061Z,60.99
2022-08-15T00:33:02.870Z,60.69
2022-08-15T00:33:44.031Z,60.99
2022-08-15T00:34:43.021Z,60.99
2022-08-15T00:35:49.094Z,60.59
2022-08-15T00:36:52.756Z,60.59
2022-08-15T00:38:11.890Z,60.69
2022-08-15T00:38:43.968Z,60.59
2022-08-15T00:39:43.004Z,61.19
2022-08-15T00:40:42.955Z,61.49
2022-08-15T00:41:43.045Z,61.09
2022-08-15T00:42:42.950Z,61.79
2022-08-15T00:43:48.561Z,61.19
2022-08-15T00:44:53.098Z,60.92
2022-08-15T00:45:43.889Z,61.11
2022-08-15T00:46:43.897Z,61.09
2022-08-15T00:47:42.871Z,60.82
2022-08-15T00:48:42.865Z,60.62
2022-08-15T00:50:02.253Z,60.59
2022-08-15T00:50:43.847Z,60.39
2022-08-15T00:51:44.433Z,60.79
2022-08-15T00:52:43.818Z,60.69
2022-08-15T00:53:42.811Z,60.89
2022-08-15T00:54:56.220Z,60.42
2022-08-15T00:55:43.783Z,60.39
2022-08-15T00:56:43.789Z,60.42
2022-08-15T00:57:59.496Z,60.59
2022-08-15T00:58:44.146Z,60.52
2022-08-15T00:59:43.914Z,60.12
2022-08-15T01:00:45.167Z,60.79
2022-08-15T01:01:42.775Z,60.69
2022-08-15T01:02:42.701Z,60.62
2022-08-15T01:03:53.293Z,60.82
2022-08-15T01:04:43.677Z,60.52
2022-08-15T01:05:42.676Z,60.72
2022-08-15T01:06:42.676Z,61.02
2022-08-15T01:07:42.652Z,60.82
2022-08-15T01:08:42.640Z,61.22
2022-08-15T01:09:44.358Z,61.25
2022-08-15T01:10:54.829Z,61.32
2022-08-15T01:11:43.613Z,61.52
2022-08-15T01:12:42.622Z,61.52
2022-08-15T01:14:02.294Z,61.61
2022-08-15T01:14:57.073Z,61.55
2022-08-15T01:15:43.553Z,61.52
2022-08-15T01:16:42.744Z,61.61
2022-08-15T01:17:54.477Z,61.85
2022-08-15T01:18:43.519Z,61.44
2022-08-15T01:19:42.518Z,61.44
2022-08-15T01:20:42.505Z,61.74
2022-08-15T01:21:42.646Z,61.71
2022-08-15T01:22:42.478Z,61.55
2022-08-15T01:23:54.723Z,61.74
2022-08-15T01:25:10.624Z,61.65
2022-08-15T01:26:38.949Z,61.65
2022-08-15T01:26:46.120Z,61.85
2022-08-15T01:27:42.432Z,61.94
2022-08-15T01:28:42.412Z,62.15
2022-08-15T01:29:42.401Z,62.48
2022-08-15T01:31:02.465Z,62.27
2022-08-15T01:31:47.963Z,62.74
2022-08-15T01:32:43.370Z,62.45
2022-08-15T01:33:42.356Z,62.48
2022-08-15T01:34:42.349Z,62.27
2022-08-15T01:35:43.812Z,62.57
2022-08-15T01:36:42.341Z,62.48
2022-08-15T01:37:56.880Z,62.67
2022-08-15T01:39:07.923Z,62.57
2022-08-15T01:39:43.766Z,62.57
2022-08-15T01:40:54.025Z,62.27
2022-08-15T01:41:54.505Z,62.37
2022-08-15T01:42:43.304Z,62.57
2022-08-15T01:43:42.248Z,62.18
2022-08-15T01:44:49.320Z,63.30
2022-08-15T01:45:43.226Z,62.20
2022-08-15T01:46:42.222Z,62.27
2022-08-15T01:47:42.198Z,62.07
2022-08-15T01:48:42.193Z,62.18
2022-08-15T01:49:44.100Z,62.18
2022-08-15T01:50:42.169Z,62.48
2022-08-15T01:51:42.171Z,62.37
2022-08-15T01:52:57.613Z,62.37
2022-08-15T01:53:43.136Z,62.18
2022-08-15T01:54:58.559Z,62.18
2022-08-15T01:55:44.132Z,61.98
2022-08-15T01:56:46.226Z,62.37
2022-08-15T01:57:42.092Z,62.48
2022-08-15T01:58:42.073Z,62.27
2022-08-15T01:59:42.073Z,62.18
2022-08-15T02:00:43.184Z,62.48
2022-08-15T02:01:42.659Z,62.10
2022-08-15T02:02:47.150Z,62.27
2022-08-15T02:03:48.858Z,61.80
2022-08-15T02:04:43.010Z,61.60
2022-08-15T02:05:42.001Z,61.38
2022-08-15T02:06:42.000Z,61.87
2022-08-15T02:07:49.266Z,62.07
2022-08-15T02:08:42.966Z,61.77
2022-08-15T02:09:51.091Z,61.87
2022-08-15T02:10:42.945Z,61.87
2022-08-15T02:12:00.458Z,62.07
2022-08-15T02:13:03.660Z,61.68
2022-08-15T02:13:42.916Z,61.77
2022-08-15T02:14:41.896Z,62.40
2022-08-15T02:15:43.573Z,62.01
2022-08-15T02:16:41.889Z,62.30
2022-08-15T02:17:41.870Z,61.90
2022-08-15T02:18:41.857Z,62.27
2022-08-15T02:19:45.402Z,62.10
2022-08-15T02:24:20.299Z,62.20
2022-08-15T02:25:12.213Z,61.51
2022-08-15T02:26:11.209Z,61.90
2022-08-15T02:27:11.210Z,61.71
2022-08-15T02:28:34.497Z,62.40
2022-08-15T02:29:12.181Z,61.90
2022-08-15T02:30:11.464Z,61.80
2022-08-15T02:31:11.160Z,61.21
2022-08-15T02:32:11.142Z,62.20
2022-08-15T02:33:11.148Z,61.80
2022-08-15T02:34:16.806Z,61.80
2022-08-15T02:35:12.109Z,61.90
2022-08-15T02:36:12.552Z,61.60
2022-08-15T02:37:11.095Z,61.77
2022-08-15T02:38:19.185Z,62.30
2022-08-15T02:39:12.064Z,61.90
2022-08-15T02:40:47.355Z,61.71
2022-08-15T02:41:12.049Z,61.90
2022-08-15T02:42:11.034Z,62.01
2022-08-15T02:43:11.045Z,62.01
2022-08-15T02:44:13.167Z,61.80
2022-08-15T02:45:13.577Z,61.90
2022-08-15T02:46:28.581Z,62.20
2022-08-15T02:47:11.978Z,62.20
2022-08-15T02:48:27.434Z,61.80
2022-08-15T02:49:11.957Z,61.90
2022-08-15T02:50:10.944Z,61.90
2022-08-15T02:51:13.432Z,61.87
2022-08-15T02:52:21.027Z,61.90
2022-08-15T02:53:11.926Z,61.90
2022-08-15T02:54:37.659Z,61.80
2022-08-15T02:55:11.895Z,61.90
2022-08-15T02:56:10.882Z,61.87
2022-08-15T02:57:12.778Z,62.30
2022-08-15T02:58:10.872Z,62.70
2022-08-15T02:59:12.848Z,61.87
2022-08-15T03:00:17.954Z,62.37
2022-08-15T03:01:15.105Z,62.01
2022-08-15T03:02:29.888Z,61.77
2022-08-15T03:03:15.148Z,61.47
2022-08-15T03:04:28.156Z,61.57
2022-08-15T03:05:11.779Z,61.57
2022-08-15T03:06:16.574Z,61.27
2022-08-15T03:07:11.756Z,61.87
2022-08-15T03:08:10.750Z,62.67
2022-08-15T03:09:10.750Z,62.07
2022-08-15T03:10:10.730Z,62.27
2022-08-15T03:11:11.712Z,61.85
2022-08-15T03:12:21.613Z,61.77
2022-08-15T03:13:11.691Z,62.04
2022-08-15T03:14:34.320Z,61.65
2022-08-15T03:15:11.669Z,61.15
2022-08-15T03:16:15.526Z,61.57
2022-08-15T03:17:11.653Z,61.85
2022-08-15T03:18:12.055Z,61.68
2022-08-15T03:19:10.647Z,61.05
2022-08-15T03:20:13.406Z,61.74
2022-08-15T03:21:10.771Z,61.35
2022-08-15T03:22:10.603Z,61.55
2022-08-15T03:23:11.581Z,61.35
2022-08-15T03:24:10.587Z,61.65
2022-08-15T03:25:10.561Z,61.74
2022-08-15T03:26:25.711Z,61.55
2022-08-15T03:27:11.548Z,61.55
2022-08-15T03:28:27.492Z,61.55
2022-08-15T03:29:15.949Z,61.94
2022-08-15T03:30:19.204Z,62.27
2022-08-15T03:31:11.822Z,61.77
2022-08-15T03:32:10.485Z,61.98
2022-08-15T03:33:11.471Z,61.87
2022-08-15T03:34:10.485Z,62.48
2022-08-15T03:35:11.450Z,62.27
2022-08-15T03:36:11.384Z,62.27
2022-08-15T03:37:10.436Z,62.18
2022-08-15T03:38:10.428Z,62.18
2022-08-15T03:39:10.431Z,62.18
2022-08-15T03:40:11.368Z,62.48
2022-08-15T03:41:10.391Z,62.27
2022-08-15T03:42:18.767Z,62.57
2022-08-15T03:43:13.611Z,62.57
2022-08-15T03:44:26.437Z,62.57
2022-08-15T03:45:11.340Z,62.87
2022-08-15T03:46:10.338Z,63.07
2022-08-15T03:47:11.318Z,62.67
2022-08-15T03:48:20.832Z,63.17
2022-08-15T03:49:11.320Z,62.97
2022-08-15T03:50:27.554Z,63.37
2022-08-15T03:51:11.284Z,63.27
2022-08-15T03:52:10.439Z,62.77
2022-08-15T03:53:10.346Z,62.48
2022-08-15T03:54:25.772Z,62.54
2022-08-15T03:55:17.808Z,61.85
2022-08-15T03:56:11.222Z,63.24
2022-08-15T03:57:11.209Z,61.85
2022-08-15T03:58:32.003Z,62.15
2022-08-15T03:59:11.898Z,62.24
2022-08-15T04:00:10.194Z,61.25
2022-08-15T04:01:13.156Z,62.24
2022-08-15T04:02:11.894Z,62.15
2022-08-15T04:03:11.142Z,61.05
2022-08-15T04:04:18.985Z,61.65
2022-08-15T04:05:11.135Z,61.55
2022-08-15T04:06:14.790Z,60.92
2022-08-15T04:07:23.528Z,61.65
2022-08-15T04:09:03.981Z,61.65
2022-08-15T04:09:13.900Z,61.65
2022-08-15T04:10:37.276Z,61.74
2022-08-15T04:11:11.113Z,60.95
2022-08-15T04:12:24.888Z,61.44
2022-08-15T04:13:11.041Z,61.22
2022-08-15T04:14:33.310Z,61.82
2022-08-15T04:15:15.087Z,62.71
2022-08-15T04:17:03.437Z,61.82
2022-08-15T04:17:18.786Z,62.12
2022-08-15T04:18:43.099Z,62.21
2022-08-15T04:19:10.964Z,61.82
2022-08-15T04:20:26.647Z,62.21
2022-08-15T04:21:10.955Z,62.24
2022-08-15T04:22:09.931Z,62.04
2022-08-15T04:23:09.920Z,62.54
2022-08-15T04:24:25.935Z,62.45
2022-08-15T04:25:15.709Z,62.54
2022-08-15T04:26:10.904Z,62.74
2022-08-15T04:27:10.881Z,62.54
2022-08-15T04:28:28.540Z,62.64
2022-08-15T04:29:10.857Z,62.34
2022-08-15T04:30:09.842Z,62.34
2022-08-15T04:31:12.607Z,62.15
2022-08-15T04:32:09.825Z,62.34
2022-08-15T04:33:22.299Z,62.74
2022-08-15T04:34:48.234Z,62.04
2022-08-15T04:35:10.785Z,61.55
2022-08-15T04:36:10.789Z,62.15
2022-08-15T04:37:12.139Z,61.85
2022-08-15T04:38:09.760Z,61.74
2022-08-15T04:39:12.765Z,61.85
2022-08-15T04:41:16.556Z,61.74
2022-08-15T04:41:17.987Z,62.61
2022-08-15T04:42:10.724Z,61.74
2022-08-15T04:43:10.697Z,61.94
2022-08-15T04:44:17.160Z,62.15
2022-08-15T04:45:13.391Z,62.01
2022-08-15T04:46:22.857Z,61.74
2022-08-15T04:47:10.674Z,62.15
2022-08-15T04:48:20.334Z,62.34
2022-08-15T04:49:11.402Z,61.52
2022-08-15T04:50:09.629Z,61.74
2022-08-15T04:51:17.054Z,62.21
2022-08-15T04:52:10.613Z,61.85
2022-08-15T04:53:09.586Z,62.24
2022-08-15T04:54:09.577Z,61.91
2022-08-15T04:55:09.578Z,61.65
2022-08-15T04:56:47.315Z,61.74
2022-08-15T04:57:10.563Z,62.51
2022-08-15T04:58:43.030Z,61.74
2022-08-15T04:59:34.685Z,61.65
2022-08-15T05:00:10.519Z,62.64
2022-08-15T05:01:09.581Z,61.91
2022-08-15T05:02:55.037Z,62.04
2022-08-15T05:03:10.821Z,61.55
2022-08-15T05:04:23.707Z,61.55
2022-08-15T05:05:10.460Z,61.71
2022-08-15T05:06:31.572Z,61.52
2022-08-15T05:07:10.456Z,62.24
2022-08-15T05:08:14.571Z,61.65
2022-08-15T05:09:09.417Z,61.85
2022-08-15T05:10:11.255Z,61.74
2022-08-15T05:11:14.002Z,62.12
2022-08-15T05:12:12.851Z,62.04
2022-08-15T05:13:09.388Z,62.31
2022-08-15T05:14:09.359Z,62.71
2022-08-15T05:15:11.277Z,62.04
2022-08-15T05:16:09.338Z,62.34
2022-08-15T05:17:10.707Z,62.21
2022-08-15T05:18:17.013Z,62.21
2022-08-15T05:19:10.305Z,62.51
2022-08-15T05:20:09.297Z,62.24
2022-08-15T05:21:09.284Z,62.71
2022-08-15T05:22:09.266Z,62.31
2022-08-15T05:23:09.276Z,62.51
2022-08-15T05:24:09.241Z,62.64
2022-08-15T05:25:09.997Z,62.91
2022-08-15T05:26:53.460Z,62.61
2022-08-15T05:27:10.207Z,62.61
2022-08-15T05:28:30.964Z,62.61
2022-08-15T05:29:10.185Z,62.94
2022-08-15T05:30:09.176Z,62.51
2022-08-15T05:31:14.515Z,62.51
2022-08-15T05:32:11.827Z,62.41
2022-08-15T05:33:10.681Z,62.71
2022-08-15T05:34:09.276Z,62.61
2022-08-15T05:35:09.135Z,62.91
2022-08-15T05:36:09.116Z,61.32
2022-08-15T05:37:10.106Z,61.41
2022-08-15T05:38:22.390Z,61.49
2022-08-15T05:39:10.092Z,61.82
2022-08-15T05:40:09.378Z,61.58
2022-08-15T05:41:09.065Z,61.09
2022-08-15T05:42:12.148Z,61.58
2022-08-15T05:43:09.041Z,61.29
2022-08-15T05:44:38.106Z,60.99
2022-08-15T05:45:10.153Z,61.66
2022-08-15T05:46:09.007Z,61.36
2022-08-15T05:47:09.994Z,61.25
2022-08-15T05:48:20.366Z,61.55
2022-08-15T05:49:09.985Z,61.25
2022-08-15T05:50:11.124Z,60.66
2022-08-15T05:51:08.946Z,61.76
2022-08-15T05:52:08.934Z,60.86
2022-08-15T05:53:09.931Z,60.73
2022-08-15T05:54:09.835Z,60.93
2022-08-15T05:55:08.923Z,60.43
2022-08-15T05:56:08.888Z,61.03
2022-08-15T05:57:08.884Z,59.94
2022-08-15T05:58:36.620Z,60.11
2022-08-15T05:59:09.865Z,59.81
2022-08-15T06:00:08.868Z,59.01
2022-08-15T06:01:14.765Z,59.81
2022-08-15T06:02:37.317Z,59.70
2022-08-15T06:03:09.878Z,59.88
2022-08-15T06:04:09.870Z,60.00
2022-08-15T06:05:11.974Z,59.08
2022-08-15T06:06:25.864Z,58.88
2022-08-15T06:07:09.766Z,58.69
2022-08-15T06:08:09.380Z,58.69
2022-08-15T06:09:09.749Z,58.95
2022-08-15T06:10:13.427Z,58.65
2022-08-15T06:11:09.752Z,58.75
2022-08-15T06:12:22.040Z,58.88
2022-08-15T06:13:09.706Z,58.65
2022-08-15T06:14:13.722Z,58.95
2022-08-15T06:15:10.665Z,58.75
2022-08-15T06:16:46.143Z,58.16
2022-08-15T06:17:09.676Z,58.16
2022-08-15T06:18:08.648Z,57.46
2022-08-15T06:19:08.631Z,58.45
2022-08-15T06:20:29.464Z,58.53
2022-08-15T06:21:09.608Z,58.83
2022-08-15T06:22:08.618Z,58.92
2022-08-15T06:23:08.764Z,57.93
2022-08-15T06:24:08.579Z,58.43
2022-08-15T06:25:08.565Z,57.83
2022-08-15T06:26:08.563Z,57.24
2022-08-15T06:27:10.389Z,58.03
2022-08-15T06:28:52.774Z,58.03
2022-08-15T06:29:09.520Z,57.93
2022-08-15T06:30:09.575Z,58.33
2022-08-15T06:31:08.505Z,57.43
2022-08-15T06:32:24.551Z,57.34
2022-08-15T06:33:09.501Z,58.23
2022-08-15T06:34:55.007Z,58.13
2022-08-15T06:35:09.560Z,58.03
2022-08-15T06:36:08.446Z,57.53
2022-08-15T06:37:10.253Z,58.03
2022-08-15T06:38:30.936Z,57.73
2022-08-15T06:39:09.422Z,58.23
2022-08-15T06:40:08.669Z,57.34
2022-08-15T06:41:08.399Z,57.24
2022-08-15T06:42:11.280Z,58.13
2022-08-15T06:43:08.366Z,57.24
2022-08-15T06:44:08.364Z,57.73
2022-08-15T06:45:08.347Z,57.70
2022-08-15T06:46:40.003Z,56.81
2022-08-15T06:47:09.316Z,57.11
2022-08-15T06:48:55.379Z,57.41
2022-08-15T06:49:09.328Z,57.11
2022-08-15T06:50:16.770Z,56.61
2022-08-15T06:51:09.275Z,57.21
2022-08-15T06:52:12.482Z,57.11
2022-08-15T06:53:09.992Z,56.71
2022-08-15T06:54:34.621Z,56.71
2022-08-15T06:55:09.224Z,56.68
2022-08-15T06:56:08.281Z,56.78
2022-08-15T06:57:08.222Z,56.78
2022-08-15T06:58:55.061Z,57.08
2022-08-15T06:59:09.230Z,56.78
2022-08-15T07:00:34.604Z,56.76
2022-08-15T07:01:09.366Z,56.56
2022-08-15T07:02:15.978Z,56.56
2022-08-15T07:03:09.189Z,56.53
2022-08-15T07:04:08.123Z,56.04
2022-08-15T07:05:08.162Z,54.85
2022-08-15T07:06:08.104Z,56.13
2022-08-15T07:07:08.100Z,55.71
2022-08-15T07:08:08.091Z,54.94
2022-08-15T07:09:08.077Z,56.23
2022-08-15T07:10:08.066Z,55.34
2022-08-15T07:11:08.076Z,56.53
2022-08-15T07:12:08.042Z,55.64
2022-08-15T07:13:10.131Z,55.27
2022-08-15T07:14:21.292Z,55.94
2022-08-15T07:15:09.005Z,56.36
2022-08-15T07:16:07.999Z,56.23
2022-08-15T07:17:08.987Z,56.76
2022-08-15T07:18:07.990Z,55.54
2022-08-15T07:19:07.959Z,56.56
2022-08-15T07:20:34.748Z,56.66
2022-08-15T07:21:11.096Z,56.36
2022-08-15T07:22:08.724Z,56.36
2022-08-15T07:23:07.938Z,56.06
2022-08-15T07:24:32.990Z,56.26
2022-08-15T07:25:09.004Z,56.46
2022-08-15T07:26:07.887Z,56.29
2022-08-15T07:27:10.729Z,56.59
2022-08-15T07:28:07.886Z,56.59
2022-08-15T07:29:07.907Z,56.68
2022-08-15T07:30:12.408Z,56.98
2022-08-15T07:31:07.843Z,56.78
2022-08-15T07:32:18.964Z,56.98
2022-08-15T07:33:09.828Z,57.18
2022-08-15T07:34:19.835Z,56.88
2022-08-15T07:35:11.000Z,56.32
2022-08-15T07:36:07.772Z,56.59
2022-08-15T07:37:07.768Z,56.68
2022-08-15T07:38:21.678Z,56.68
2022-08-15T07:39:08.756Z,56.61
2022-08-15T07:40:07.837Z,56.71
2022-08-15T07:41:07.718Z,56.59
2022-08-15T07:42:08.703Z,56.71
2022-08-15T07:43:08.698Z,57.08
2022-08-15T07:44:20.703Z,56.98
2022-08-15T07:45:08.670Z,56.68
2022-08-15T07:46:23.224Z,56.78
2022-08-15T07:47:08.654Z,56.59
2022-08-15T07:48:08.340Z,56.81
2022-08-15T07:49:07.639Z,57.08
2022-08-15T07:50:07.620Z,56.78
2022-08-15T07:51:15.836Z,56.29
2022-08-15T07:52:08.598Z,57.18
2022-08-15T07:53:07.579Z,57.18
2022-08-15T07:54:13.452Z,57.08
2022-08-15T07:55:08.601Z,58.67
2022-08-15T07:56:41.968Z,56.98
2022-08-15T07:57:10.047Z,57.18
2022-08-15T07:58:07.685Z,56.49
2022-08-15T07:59:07.536Z,56.98
2022-08-15T08:02:08.527Z,56.78
2022-08-15T08:03:07.477Z,57.58
2022-08-15T08:04:07.466Z,57.48
2022-08-15T08:05:09.862Z,56.78
2022-08-15T08:06:35.186Z,57.48
2022-08-15T08:07:08.422Z,57.58
2022-08-15T08:08:07.419Z,56.68
2022-08-15T08:09:08.433Z,57.06
2022-08-15T08:10:23.967Z,56.95
2022-08-15T08:11:08.382Z,56.56
2022-08-15T08:12:07.374Z,56.76
2022-08-15T08:13:19.671Z,56.76
2022-08-15T08:14:40.591Z,56.68
2022-08-15T08:15:09.704Z,56.59
2022-08-15T08:16:07.334Z,56.59
2022-08-15T08:17:07.313Z,56.49
2022-08-15T08:18:07.305Z,56.88
2022-08-15T08:19:07.392Z,56.98
2022-08-15T08:20:07.278Z,56.68
2022-08-15T08:21:07.603Z,56.98
2022-08-15T08:22:08.395Z,57.08
2022-08-15T08:23:07.245Z,57.08
2022-08-15T08:24:08.146Z,56.76
2022-08-15T08:25:11.761Z,56.78
2022-08-15T08:26:18.283Z,56.76
2022-08-15T08:27:12.122Z,57.08
2022-08-15T08:28:10.632Z,57.08
2022-08-15T08:29:09.265Z,57.18
2022-08-15T08:30:13.482Z,56.66
2022-08-15T08:31:08.151Z,57.35
2022-08-15T08:32:29.245Z,58.04
2022-08-15T08:33:08.137Z,57.25
2022-08-15T08:34:09.839Z,57.35
2022-08-15T08:35:07.127Z,57.15
2022-08-15T08:36:36.157Z,57.06
2022-08-15T08:37:08.091Z,56.85
2022-08-15T08:38:31.043Z,56.95
2022-08-15T08:39:08.068Z,57.15
2022-08-15T08:40:07.586Z,56.95
2022-08-15T08:41:10.611Z,57.15
2022-08-15T08:42:19.656Z,56.73
2022-08-15T08:43:08.022Z,56.16
2022-08-15T08:44:17.866Z,56.26
2022-08-15T08:45:09.166Z,56.23
2022-08-15T08:46:06.998Z,56.66
2022-08-15T08:47:07.763Z,56.85
2022-08-15T08:48:06.971Z,55.76
2022-08-15T08:49:06.950Z,56.66
2022-08-15T08:50:34.445Z,56.46
2022-08-15T08:51:10.790Z,56.46
2022-08-15T08:52:07.287Z,57.15
2022-08-15T08:53:06.938Z,56.56
2022-08-15T08:54:09.335Z,56.56
2022-08-15T08:55:06.885Z,56.95
2022-08-15T08:56:31.187Z,56.95
2022-08-15T08:57:07.883Z,57.25
2022-08-15T08:58:09.865Z,56.76
2022-08-15T08:59:10.853Z,57.06
2022-08-15T09:00:06.828Z,56.73
2022-08-15T09:01:06.863Z,57.65
2022-08-15T09:02:06.835Z,56.83
2022-08-15T09:03:07.795Z,57.42
2022-08-15T09:04:06.791Z,57.42
2022-08-15T09:05:08.313Z,56.73
2022-08-15T09:06:06.761Z,57.42
2022-08-15T09:07:11.728Z,56.63
2022-08-15T09:08:12.227Z,56.83
2022-08-15T09:09:07.729Z,56.73
2022-08-15T09:10:07.262Z,57.42
2022-08-15T09:11:06.721Z,57.42
2022-08-15T09:12:09.453Z,56.63
2022-08-15T09:13:06.724Z,56.93
2022-08-15T09:14:06.672Z,56.93
2022-08-15T09:15:15.183Z,56.73
2022-08-15T09:16:07.655Z,56.83
2022-08-15T09:17:27.891Z,56.73
2022-08-15T09:18:09.346Z,56.63
2022-08-15T09:19:12.355Z,57.53
2022-08-15T09:20:12.209Z,56.83
2022-08-15T09:21:07.594Z,56.93
2022-08-15T09:22:06.591Z,57.42
2022-08-15T09:23:06.587Z,57.29
2022-08-15T09:24:36.996Z,57.50
2022-08-15T09:25:08.413Z,57.10
2022-08-15T09:26:06.539Z,57.50
2022-08-15T09:27:07.535Z,57.29
2022-08-15T09:28:08.628Z,56.80
2022-08-15T09:29:18.379Z,56.51
2022-08-15T09:30:45.854Z,56.60
2022-08-15T09:31:07.491Z,56.87
2022-08-15T09:32:31.028Z,56.70
2022-08-15T09:33:07.507Z,57.20
2022-08-15T09:34:06.500Z,56.90
2022-08-15T09:35:06.441Z,56.90
2022-08-15T09:36:06.437Z,56.77
2022-08-15T09:37:06.419Z,57.10
2022-08-15T09:38:25.331Z,56.70
2022-08-15T09:39:07.417Z,56.77
2022-08-15T09:40:58.753Z,56.21
2022-08-15T09:41:13.050Z,55.51
2022-08-15T09:42:34.263Z,56.60
2022-08-15T09:43:17.130Z,56.34
2022-08-15T09:44:36.769Z,56.23
2022-08-15T09:45:07.348Z,56.56
2022-08-15T09:46:07.856Z,57.08
2022-08-15T09:47:12.764Z,57.38
2022-08-15T09:48:07.309Z,57.98
2022-08-15T09:49:06.294Z,58.37
2022-08-15T09:50:36.537Z,58.57
2022-08-15T09:51:07.271Z,58.07
2022-08-15T09:52:06.261Z,58.77
2022-08-15T09:53:06.242Z,58.57
2022-08-15T09:54:25.024Z,58.47
2022-08-15T09:55:07.235Z,57.68
2022-08-15T09:56:06.253Z,57.68
2022-08-15T09:57:06.200Z,56.98
2022-08-15T09:58:06.196Z,57.08
2022-08-15T09:59:06.180Z,58.60
2022-08-15T10:00:07.352Z,58.47
2022-08-15T10:01:06.801Z,58.37
2022-08-15T10:02:36.469Z,58.67
2022-08-15T10:03:07.132Z,57.68
2022-08-15T10:04:06.133Z,58.57
2022-08-15T10:05:07.116Z,57.58
2022-08-15T10:06:32.385Z,57.68
2022-08-15T10:07:07.086Z,56.66
2022-08-15T10:08:07.127Z,57.58
2022-08-15T10:09:06.858Z,58.87
2022-08-15T10:10:06.056Z,57.58
2022-08-15T10:11:06.050Z,57.38
2022-08-15T10:12:06.053Z,57.68
2022-08-15T10:13:06.027Z,58.97
2022-08-15T10:14:13.971Z,57.58
2022-08-15T10:15:08.064Z,57.48
2022-08-15T10:16:05.995Z,57.45
2022-08-15T10:17:06.997Z,57.68
2022-08-15T10:18:06.281Z,58.27
2022-08-15T10:19:05.961Z,58.04
2022-08-15T10:20:18.843Z,58.47
2022-08-15T10:21:06.937Z,58.25
2022-08-15T10:22:05.949Z,57.38
2022-08-15T10:23:05.917Z,58.54
2022-08-15T10:24:05.899Z,57.85
2022-08-15T10:25:06.891Z,59.04
2022-08-15T10:26:07.753Z,57.65
2022-08-15T10:27:06.893Z,58.94
2022-08-15T10:28:38.795Z,57.78
2022-08-15T10:29:08.888Z,58.17
2022-08-15T10:30:44.855Z,57.58
2022-08-15T10:31:07.413Z,58.37
2022-08-15T10:32:55.378Z,58.30
2022-08-15T10:33:16.370Z,58.40
2022-08-15T10:34:06.796Z,58.50
2022-08-15T10:35:05.777Z,58.90
2022-08-15T10:36:05.770Z,59.39
2022-08-15T10:37:06.754Z,59.19
2022-08-15T10:38:05.755Z,59.92
2022-08-15T10:39:05.765Z,60.52
2022-08-15T10:40:12.617Z,60.02
2022-08-15T10:41:14.482Z,61.41
2022-08-15T10:42:19.562Z,60.94
2022-08-15T10:43:06.696Z,61.24
2022-08-15T10:44:05.719Z,62.04
2022-08-15T10:45:06.675Z,62.83
2022-08-15T10:46:05.664Z,62.93
2022-08-15T10:47:05.648Z,63.13
2022-08-15T10:48:13.104Z,63.82
2022-08-15T10:49:06.670Z,63.63
2022-08-15T10:50:05.612Z,64.45
2022-08-15T10:51:05.601Z,63.63
2022-08-15T10:52:05.591Z,64.15
2022-08-15T10:53:05.585Z,64.65
2022-08-15T10:54:05.566Z,63.76
2022-08-15T10:55:05.567Z,63.85
2022-08-15T10:56:05.549Z,63.95
2022-08-15T10:57:09.168Z,63.85
2022-08-15T10:58:05.527Z,63.76
2022-08-15T10:59:06.508Z,64.06
2022-08-15T11:00:35.869Z,64.15
2022-08-15T11:01:06.538Z,63.66
2022-08-15T11:02:05.481Z,64.75
2022-08-15T11:03:10.311Z,64.85
2022-08-15T11:04:48.741Z,64.48
2022-08-15T11:05:07.387Z,64.98
2022-08-15T11:06:05.433Z,64.88
2022-08-15T11:07:06.717Z,64.98
2022-08-15T11:08:05.413Z,65.28
2022-08-15T11:09:05.396Z,65.81
2022-08-15T11:10:05.394Z,66.50
2022-08-15T11:11:06.400Z,67.24
2022-08-15T11:12:14.519Z,67.13
2022-08-15T11:13:06.357Z,68.73
2022-08-15T11:14:05.343Z,68.43
2022-08-15T11:15:05.328Z,69.16
2022-08-15T11:16:31.295Z,69.96
2022-08-15T11:17:06.311Z,70.39
2022-08-15T11:18:21.610Z,70.99
2022-08-15T11:19:06.288Z,70.99
2022-08-15T11:20:14.156Z,71.48
2022-08-15T11:21:06.282Z,71.12
2022-08-15T11:22:07.281Z,71.42
2022-08-15T11:23:05.243Z,72.02
2022-08-15T11:24:05.235Z,71.92
2022-08-15T11:25:05.229Z,72.25
2022-08-15T11:26:05.236Z,72.75
2022-08-15T11:27:06.218Z,72.35
2022-08-15T11:28:29.344Z,72.75
2022-08-15T11:29:06.175Z,72.95
2022-08-15T11:30:21.491Z,73.75
2022-08-15T11:31:06.172Z,73.25
2022-08-15T11:32:24.481Z,73.95
2022-08-15T11:33:06.137Z,73.85
2022-08-15T11:34:23.736Z,74.05
2022-08-15T11:35:06.107Z,74.05
2022-08-15T11:36:05.100Z,74.15
2022-08-15T11:37:05.103Z,73.88
2022-08-15T11:38:19.939Z,73.85
2022-08-15T11:39:15.945Z,74.45
2022-08-15T11:40:08.749Z,73.65
2022-08-15T11:41:05.048Z,74.05
2022-08-15T11:42:05.054Z,74.15
2022-08-15T11:43:11.333Z,74.25
2022-08-15T11:44:06.008Z,74.15
2022-08-15T11:45:04.997Z,74.45
2022-08-15T11:46:30.013Z,73.65
2022-08-15T11:47:05.989Z,73.95
2022-08-15T11:48:05.541Z,73.65
2022-08-15T11:49:04.951Z,74.15
2022-08-15T11:50:05.946Z,73.65
2022-08-15T11:51:04.936Z,74.25
2022-08-15T11:52:42.554Z,73.95
2022-08-15T11:53:05.905Z,74.41
2022-08-15T11:54:05.957Z,74.55
2022-08-15T11:55:04.893Z,73.91
2022-08-15T11:56:05.021Z,74.32
2022-08-15T11:57:06.607Z,74.45
2022-08-15T11:58:12.068Z,74.21
2022-08-15T11:59:05.837Z,74.32
2022-08-15T12:00:08.584Z,73.72
2022-08-15T12:01:04.820Z,73.82
2022-08-15T12:02:04.808Z,72.62
2022-08-15T12:03:24.056Z,73.18
2022-08-15T12:04:41.751Z,72.98
2022-08-15T12:05:41.363Z,72.05
2022-08-15T12:06:28.708Z,72.05
2022-08-15T12:07:05.752Z,70.82
2022-08-15T12:08:22.578Z,71.02
2022-08-15T12:09:05.737Z,70.62
2022-08-15T12:10:04.718Z,71.12
2022-08-15T12:11:07.256Z,71.12
2022-08-15T12:12:04.696Z,70.75
2022-08-15T12:13:04.691Z,71.02
2022-08-15T12:15:04.663Z,71.12
2022-08-15T12:16:29.182Z,71.22
2022-08-15T12:17:05.655Z,70.79
2022-08-15T12:18:07.926Z,71.19
2022-08-15T12:19:06.380Z,70.56
2022-08-15T12:20:26.242Z,70.15
2022-08-15T12:21:05.593Z,69.16
2022-08-15T12:22:44.739Z,68.86
2022-08-15T12:23:15.996Z,69.26
2022-08-15T12:24:05.586Z,68.93
2022-08-15T12:25:04.558Z,68.96
2022-08-15T12:26:37.788Z,69.06
2022-08-15T12:27:05.550Z,68.04
2022-08-15T12:28:33.219Z,68.00
2022-08-15T12:29:08.754Z,67.80
2022-08-15T12:30:04.506Z,67.21
2022-08-15T12:31:04.882Z,66.81
2022-08-15T12:32:36.159Z,66.78
2022-08-15T12:33:05.467Z,67.11
2022-08-15T12:34:29.543Z,67.00
2022-08-15T12:35:05.458Z,67.21
2022-08-15T12:36:04.434Z,67.00
2022-08-15T12:37:07.687Z,67.00
2022-08-15T12:38:04.411Z,66.44
2022-08-15T12:39:04.390Z,67.14
2022-08-15T12:40:05.463Z,67.11
2022-08-15T12:41:13.821Z,66.41
2022-08-15T12:42:54.444Z,66.31
2022-08-15T12:43:07.945Z,65.42
2022-08-15T12:44:04.344Z,65.02
2022-08-15T12:45:04.334Z,66.01
2022-08-15T12:46:04.329Z,65.72
2022-08-15T12:47:04.309Z,65.61
2022-08-15T12:48:05.362Z,65.61
2022-08-15T12:49:04.281Z,64.89
2022-08-15T12:50:04.278Z,64.49
2022-08-15T12:51:04.275Z,63.79
2022-08-15T12:52:04.256Z,63.89
2022-08-15T12:53:08.839Z,63.70
2022-08-15T12:54:05.418Z,64.00
2022-08-15T12:55:10.396Z,63.37
2022-08-15T12:56:30.179Z,63.83
2022-08-15T12:57:11.706Z,62.84
2022-08-15T12:58:05.356Z,63.01
2022-08-15T12:59:04.180Z,62.78